Time;durP1;ratioP1;P1;durP2;ratioP2;P2;SDS_P1;SDS_P2;PMS_P1;PMS_P2;Temp;Humidity;BMP_temperature;BMP_pressure;BME280_temperature;BME280_humidity;BME280_pressure;Samples;Min_cycle;Max_cycle;Signal;HPM_P1;HPM_P2
2024/01/12 00:01:02;;;;;;;;;;;;;;;1.01;86.95;102810.75;5052448;28;19935;-61
2024/01/12 00:03:29;;;;;;;;;;;;;;;0.88;87.30;102816.13;5049338;28;20054;-63
2024/01/12 00:05:56;;;;;;;;;;;;;;;0.89;88.04;102811.53;5046230;28;19928;-63
2024/01/12 00:08:23;;;;;;;;;;;;;;;1.08;88.29;102800.78;5050528;28;19935;-62
2024/01/12 00:10:51;;;;;;;;;;;;;;;1.31;87.41;102810.53;5048974;28;19928;-61
2024/01/12 00:13:18;;;;;;;;;;;;;;;1.44;86.36;102810.56;5049575;28;19936;-63
2024/01/12 00:15:45;;;;;;;;;;;;;;;1.27;86.96;102814.66;5044607;28;19933;-64
2024/01/12 00:18:13;;;;;;;;;;;;;;;1.38;87.00;102814.91;5049939;28;19929;-64
2024/01/12 00:20:43;;;;;;;;;;;;;;;1.22;88.00;102817.16;5028982;28;19936;-63
2024/01/12 00:23:11;;;;;;;;;;;;;;;1.18;88.51;102811.28;5037358;28;19929;-62
2024/01/12 00:25:38;;;;;;;;;;;;;;;1.40;88.17;102815.56;5050575;28;19929;-62
2024/01/12 00:28:05;;;;;;;;;;;;;;;1.50;86.81;102823.34;5048906;28;19928;-63
2024/01/12 00:30:33;;;;;;;;;;;;;;;1.45;87.46;102823.94;5049886;28;20253;-63
2024/01/12 00:33:01;;;;;;;;;;;;;;;1.48;87.05;102818.13;5049534;28;19928;-62
2024/01/12 00:35:28;;;;;;;;;;;;;;;1.67;86.96;102828.22;5065806;28;19929;-64
2024/01/12 00:37:55;;;;;;;;;;;;;;;1.45;87.61;102820.41;5061052;28;19952;-62
2024/01/12 00:40:23;;;;;;;;;;;;;;;1.49;87.92;102818.94;5051388;28;20406;-63
2024/01/12 00:42:50;;;;;;;;;;;;;;;1.45;88.29;102821.22;5060518;28;19935;-63
2024/01/12 00:45:17;;;;;;;;;;;;;;;1.74;87.22;102817.38;5048432;28;19928;-63
2024/01/12 00:47:44;;;;;;;;;;;;;;;1.68;87.15;102820.88;5040628;28;19936;-63
2024/01/12 00:50:20;;;;;;;;;;;;;;;1.48;87.98;102823.56;5045642;28;19933;-61
2024/01/12 00:52:47;;;;;;;;;;;;;;;1.52;88.35;102819.38;5055785;28;20757;-56
2024/01/12 00:55:14;;;;;;;;;;;;;;;1.83;87.57;102827.84;5063803;28;19929;-56
2024/01/12 00:57:41;;;;;;;;;;;;;;;1.65;87.45;102814.00;5048753;28;20350;-56
2024/01/12 01:00:09;;;;;;;;;;;;;;;1.81;87.17;102816.38;5046706;28;19933;-59
2024/01/12 01:02:36;;;;;;;;;;;;;;;1.84;87.10;102815.09;5071809;28;19933;-57
2024/01/12 01:05:03;;;;;;;;;;;;;;;1.85;87.04;102812.16;5048848;28;19929;-54
2024/01/12 01:07:30;;;;;;;;;;;;;;;2.03;86.25;102806.16;5058355;28;20020;-53
2024/01/12 01:09:57;;;;;;;;;;;;;;;1.64;87.55;102800.63;5048405;28;20019;-54
2024/01/12 01:12:24;;;;;;;;;;;;;;;1.75;87.30;102798.16;5047610;28;19928;-55
2024/01/12 01:14:52;;;;;;;;;;;;;;;1.87;87.57;102796.50;5048046;28;19928;-55
2024/01/12 01:17:20;;;;;;;;;;;;;;;1.77;87.54;102793.34;5048830;28;19935;-57
2024/01/12 01:19:47;;;;;;;;;;;;;;;1.79;87.95;102793.16;5048626;28;19947;-57
2024/01/12 01:22:14;;;;;;;;;;;;;;;2.15;87.56;102794.47;5048429;28;20410;-58
2024/01/12 01:24:41;;;;;;;;;;;;;;;2.22;86.65;102795.31;5047469;28;19964;-59
2024/01/12 01:27:09;;;;;;;;;;;;;;;2.00;87.14;102788.41;5047047;28;19929;-58
2024/01/12 01:29:36;;;;;;;;;;;;;;;2.27;86.69;102781.94;5047346;28;19971;-56
2024/01/12 01:32:03;;;;;;;;;;;;;;;2.10;86.78;102786.09;5063048;28;20261;-53
2024/01/12 01:34:30;;;;;;;;;;;;;;;2.17;87.08;102781.50;5047131;28;19928;-58
2024/01/12 01:37:02;;;;;;;;;;;;;;;2.22;87.39;102786.31;5056948;28;19928;-57
2024/01/12 01:39:29;;;;;;;;;;;;;;;2.31;86.95;102787.78;5048244;28;20394;-57
2024/01/12 01:41:56;;;;;;;;;;;;;;;2.40;86.83;102781.09;5033957;28;19941;-57
2024/01/12 01:44:25;;;;;;;;;;;;;;;2.40;86.79;102789.25;5047886;28;19928;-55
2024/01/12 01:46:53;;;;;;;;;;;;;;;2.42;86.92;102798.06;5046601;28;19947;-55
2024/01/12 01:49:23;;;;;;;;;;;;;;;2.45;87.11;102794.91;5043411;28;19929;-55
2024/01/12 01:51:50;;;;;;;;;;;;;;;2.39;87.38;102789.47;5030741;28;19929;-54
2024/01/12 01:54:19;;;;;;;;;;;;;;;2.54;87.38;102793.66;5046945;28;19928;-56
2024/01/12 01:56:46;;;;;;;;;;;;;;;2.49;87.33;102789.88;5046947;28;20304;-58
2024/01/12 01:59:13;;;;;;;;;;;;;;;2.60;87.61;102783.81;5048042;28;19929;-57
2024/01/12 02:01:40;;;;;;;;;;;;;;;2.89;86.58;102781.47;5054608;28;19935;-55
2024/01/12 02:04:07;;;;;;;;;;;;;;;2.63;86.22;102784.25;5036315;28;19928;-58
2024/01/12 02:06:34;;;;;;;;;;;;;;;2.58;87.50;102773.13;5046209;28;19928;-55
2024/01/12 02:09:04;;;;;;;;;;;;;;;2.96;87.07;102765.13;5029322;28;19928;-53
2024/01/12 02:11:31;;;;;;;;;;;;;;;2.92;84.13;102772.03;5046568;28;19928;-53
2024/01/12 02:13:58;;;;;;;;;;;;;;;2.74;84.39;102774.56;5059685;28;20294;-56
2024/01/12 02:16:25;;;;;;;;;;;;;;;2.92;84.50;102766.59;5046323;28;19928;-54
2024/01/12 02:18:53;;;;;;;;;;;;;;;2.96;84.02;102765.13;5052137;28;19936;-59
2024/01/12 02:21:20;;;;;;;;;;;;;;;2.98;84.59;102769.28;5051688;28;19929;-57
2024/01/12 02:23:47;;;;;;;;;;;;;;;3.12;83.75;102764.66;5052203;28;19932;-56
2024/01/12 02:26:14;;;;;;;;;;;;;;;3.25;83.10;102760.00;5051922;28;20297;-53
2024/01/12 02:28:41;;;;;;;;;;;;;;;3.04;84.04;102764.88;5046767;28;20428;-57
2024/01/12 02:31:08;;;;;;;;;;;;;;;2.52;87.56;102773.13;5047276;28;20731;-59
2024/01/12 02:33:36;;;;;;;;;;;;;;;2.47;89.65;102756.63;5039499;28;19936;-54
2024/01/12 02:36:03;;;;;;;;;;;;;;;2.63;89.61;102764.34;5036089;28;19929;-54
2024/01/12 02:38:31;;;;;;;;;;;;;;;2.62;89.41;102758.06;5031166;28;19929;-52
2024/01/12 02:40:58;;;;;;;;;;;;;;;2.82;89.40;102758.03;5035378;28;20491;-60
2024/01/12 02:43:25;;;;;;;;;;;;;;;2.94;88.59;102759.91;5041185;28;19929;-57
2024/01/12 02:45:52;;;;;;;;;;;;;;;2.82;88.62;102753.44;5029103;28;19929;-55
2024/01/12 02:48:19;;;;;;;;;;;;;;;2.90;89.41;102755.91;5028675;28;19940;-57
2024/01/12 02:50:46;;;;;;;;;;;;;;;2.76;89.52;102751.56;5030517;28;19929;-59
2024/01/12 02:53:13;;;;;;;;;;;;;;;2.89;89.67;102756.13;5030936;28;19936;-57
2024/01/12 02:55:40;;;;;;;;;;;;;;;2.74;89.73;102753.66;5031410;28;19929;-56
2024/01/12 02:58:07;;;;;;;;;;;;;;;2.85;90.01;102747.56;5029526;28;19928;-57
2024/01/12 03:00:34;;;;;;;;;;;;;;;2.86;89.66;102754.66;5029383;28;19936;-58
2024/01/12 03:03:02;;;;;;;;;;;;;;;2.87;90.05;102752.78;5031419;28;20617;-54
2024/01/12 03:05:29;;;;;;;;;;;;;;;2.90;89.85;102746.91;5030871;28;19929;-57
2024/01/12 03:07:56;;;;;;;;;;;;;;;3.05;90.09;102745.59;5026560;28;19930;-59
2024/01/12 03:10:23;;;;;;;;;;;;;;;2.88;90.11;102757.16;5029599;28;19929;-56
2024/01/12 03:12:50;;;;;;;;;;;;;;;3.06;89.96;102750.03;5030722;28;20356;-57
2024/01/12 03:15:18;;;;;;;;;;;;;;;3.06;89.46;102746.44;5027165;28;19933;-56
2024/01/12 03:17:45;;;;;;;;;;;;;;;2.81;90.23;102748.19;5030942;28;20734;-53
2024/01/12 03:20:12;;;;;;;;;;;;;;;2.70;91.79;102743.41;5030392;28;19936;-57
2024/01/12 03:22:39;;;;;;;;;;;;;;;2.73;91.85;102743.81;5027427;28;19941;-56
2024/01/12 03:25:06;;;;;;;;;;;;;;;2.99;91.32;102738.31;5020413;28;19929;-55
2024/01/12 03:27:33;;;;;;;;;;;;;;;2.83;90.48;102746.09;5045465;28;20284;-54
2024/01/12 03:30:00;;;;;;;;;;;;;;;2.62;92.37;102739.03;5033447;28;19936;-53
2024/01/12 03:32:27;;;;;;;;;;;;;;;2.88;92.02;102749.84;5040780;28;20339;-56
2024/01/12 03:34:56;;;;;;;;;;;;;;;2.96;92.27;102749.63;5050661;28;19935;-54
2024/01/12 03:37:23;;;;;;;;;;;;;;;2.98;91.40;102742.06;5060003;28;19936;-57
2024/01/12 03:39:50;;;;;;;;;;;;;;;2.63;92.88;102753.47;5043980;28;19944;-57
2024/01/12 03:42:17;;;;;;;;;;;;;;;2.51;94.48;102745.09;5050281;28;20095;-57
2024/01/12 03:44:44;;;;;;;;;;;;;;;2.57;94.58;102740.69;5050516;28;19929;-57
2024/01/12 03:47:11;;;;;;;;;;;;;;;2.68;95.02;102734.63;5050034;28;20671;-57
2024/01/12 03:49:39;;;;;;;;;;;;;;;2.83;93.80;102736.06;5040807;28;19929;-57
2024/01/12 03:52:06;;;;;;;;;;;;;;;2.63;94.65;102746.16;5049390;28;19936;-56
2024/01/12 03:54:42;;;;;;;;;;;;;;;2.70;94.49;102732.53;5050050;28;19928;-56
2024/01/12 03:57:09;;;;;;;;;;;;;;;2.80;94.28;102728.31;5049413;28;19935;-56
2024/01/12 03:59:36;;;;;;;;;;;;;;;2.69;92.74;102736.28;5047881;28;19936;-60
2024/01/12 04:02:03;;;;;;;;;;;;;;;2.74;93.96;102736.47;5048349;28;19928;-52
2024/01/12 04:04:31;;;;;;;;;;;;;;;2.74;93.37;102739.19;5050160;28;20649;-54
2024/01/12 04:06:58;;;;;;;;;;;;;;;2.62;93.95;102730.00;5046740;28;19928;-56
2024/01/12 04:09:25;;;;;;;;;;;;;;;2.70;94.20;102737.97;5046427;28;19940;-57
2024/01/12 04:11:52;;;;;;;;;;;;;;;2.83;94.16;102716.16;5048697;28;19929;-61
2024/01/12 04:14:19;;;;;;;;;;;;;;;2.89;93.13;102715.31;5028395;28;19936;-57
2024/01/12 04:16:46;;;;;;;;;;;;;;;2.84;92.79;102721.38;5041971;28;19929;-56
2024/01/12 04:19:13;;;;;;;;;;;;;;;2.62;94.25;102721.84;5049023;28;19928;-57
2024/01/12 04:21:40;;;;;;;;;;;;;;;2.74;94.22;102715.56;5047674;28;19936;-54
2024/01/12 04:24:08;;;;;;;;;;;;;;;2.70;94.32;102721.66;5049664;28;20505;-55
2024/01/12 04:26:35;;;;;;;;;;;;;;;2.82;94.23;102711.78;5048348;28;19936;-56
2024/01/12 04:29:02;;;;;;;;;;;;;;;2.82;93.73;102714.50;5049127;28;20304;-53
2024/01/12 04:31:29;;;;;;;;;;;;;;;3.02;93.29;102727.00;5049340;28;20379;-59
2024/01/12 04:33:56;;;;;;;;;;;;;;;3.18;92.40;102721.06;5048128;28;19928;-56
2024/01/12 04:36:23;;;;;;;;;;;;;;;3.21;91.46;102712.47;5059473;28;19928;-58
2024/01/12 04:38:50;;;;;;;;;;;;;;;3.03;91.50;102730.56;5060367;28;20419;-56
2024/01/12 04:41:17;;;;;;;;;;;;;;;3.00;92.24;102728.28;5043862;28;19933;-57
2024/01/12 04:43:45;;;;;;;;;;;;;;;3.01;92.45;102725.34;5046334;28;19936;-56
2024/01/12 04:46:12;;;;;;;;;;;;;;;3.16;92.43;102730.50;5046558;28;19936;-54
2024/01/12 04:48:39;;;;;;;;;;;;;;;3.09;92.03;102722.34;5039173;28;19929;-55
2024/01/12 04:51:06;;;;;;;;;;;;;;;3.28;91.88;102721.44;5048182;28;19940;-56
2024/01/12 04:53:33;;;;;;;;;;;;;;;3.16;91.51;102730.50;5047378;28;19956;-57
2024/01/12 04:56:01;;;;;;;;;;;;;;;3.19;91.89;102716.47;5048706;28;19929;-65
2024/01/12 04:58:28;;;;;;;;;;;;;;;3.07;91.98;102723.59;5048317;28;19999;-62
2024/01/12 05:00:55;;;;;;;;;;;;;;;3.01;92.88;102719.03;5051522;28;20701;-62
2024/01/12 05:03:22;;;;;;;;;;;;;;;2.94;93.01;102712.78;5044495;28;19940;-65
2024/01/12 05:05:49;;;;;;;;;;;;;;;2.94;93.12;102724.53;5049039;28;19929;-63
2024/01/12 05:08:16;;;;;;;;;;;;;;;3.22;92.83;102716.03;5047360;28;19929;-62
2024/01/12 05:10:43;;;;;;;;;;;;;;;3.00;92.82;102707.31;5041233;28;19928;-62
2024/01/12 05:13:13;;;;;;;;;;;;;;;3.06;92.71;102711.91;5030527;28;20312;-63
2024/01/12 05:15:41;;;;;;;;;;;;;;;3.22;91.90;102710.59;5040960;28;19928;-63
2024/01/12 05:18:08;;;;;;;;;;;;;;;3.39;91.09;102707.16;5048771;28;19933;-63
2024/01/12 05:20:35;;;;;;;;;;;;;;;3.37;90.03;102702.97;5049259;28;19928;-63
2024/01/12 05:23:03;;;;;;;;;;;;;;;3.51;90.15;102710.00;5050637;28;19936;-64
2024/01/12 05:25:31;;;;;;;;;;;;;;;3.50;89.38;102708.34;5059452;28;19948;-62
2024/01/12 05:27:58;;;;;;;;;;;;;;;3.64;88.91;102706.38;5051636;28;19928;-63
2024/01/12 05:30:26;;;;;;;;;;;;;;;3.21;90.02;102707.00;5048946;28;19928;-63
2024/01/12 05:32:53;;;;;;;;;;;;;;;3.17;91.14;102699.50;5048870;28;19936;-62
2024/01/12 05:35:21;;;;;;;;;;;;;;;3.32;90.59;102708.22;5049529;28;19933;-62
2024/01/12 05:37:48;;;;;;;;;;;;;;;3.24;90.64;102712.03;5049858;28;20733;-62
2024/01/12 05:40:15;;;;;;;;;;;;;;;3.42;90.39;102700.41;5048562;28;19928;-63
2024/01/12 05:42:42;;;;;;;;;;;;;;;3.36;89.85;102702.09;5048737;28;19929;-62
2024/01/12 05:45:09;;;;;;;;;;;;;;;3.34;90.02;102698.78;5048428;28;19935;-63
2024/01/12 05:47:37;;;;;;;;;;;;;;;3.43;89.58;102708.34;5045323;28;19935;-63
2024/01/12 05:50:06;;;;;;;;;;;;;;;3.61;89.67;102702.19;5052059;28;20568;-64
2024/01/12 05:52:35;;;;;;;;;;;;;;;3.77;88.52;102707.13;5050581;28;19929;-63
2024/01/12 05:55:02;;;;;;;;;;;;;;;3.42;88.48;102705.84;5050831;28;19928;-63
2024/01/12 05:57:30;;;;;;;;;;;;;;;3.49;88.76;102714.84;5053066;28;19928;-62
2024/01/12 05:59:57;;;;;;;;;;;;;;;3.63;88.74;102707.44;5052529;28;19973;-65
2024/01/12 06:02:24;;;;;;;;;;;;;;;3.63;87.60;102712.88;5051400;28;19936;-63
2024/01/12 06:04:51;;;;;;;;;;;;;;;3.58;88.01;102710.81;5053154;28;20615;-63
2024/01/12 06:07:18;;;;;;;;;;;;;;;3.59;87.90;102714.38;5052946;28;19933;-64
2024/01/12 06:09:45;;;;;;;;;;;;;;;3.49;88.18;102711.28;5052847;28;19940;-64
2024/01/12 06:12:12;;;;;;;;;;;;;;;3.60;88.25;102722.31;5050250;28;19936;-63
2024/01/12 06:14:39;;;;;;;;;;;;;;;3.79;86.59;102717.78;5049376;28;20758;-64
2024/01/12 06:17:08;;;;;;;;;;;;;;;3.81;86.78;102716.53;5053410;28;20015;-64
2024/01/12 06:19:35;;;;;;;;;;;;;;;3.86;85.93;102719.44;5051000;28;19940;-64
2024/01/12 06:22:02;;;;;;;;;;;;;;;4.05;85.81;102714.88;5034438;28;20311;-63
2024/01/12 06:24:29;;;;;;;;;;;;;;;4.13;85.07;102728.25;5050875;28;19929;-63
2024/01/12 06:26:56;;;;;;;;;;;;;;;3.70;85.65;102725.41;5050858;28;19999;-64
2024/01/12 06:29:23;;;;;;;;;;;;;;;3.83;86.04;102714.44;5049935;28;19928;-63
2024/01/12 06:31:50;;;;;;;;;;;;;;;3.74;85.86;102714.91;5051212;28;19929;-62
2024/01/12 06:34:18;;;;;;;;;;;;;;;3.79;85.77;102728.69;5033544;28;19929;-64
2024/01/12 06:36:45;;;;;;;;;;;;;;;3.72;86.27;102726.03;5061777;28;19929;-63
2024/01/12 06:39:12;;;;;;;;;;;;;;;3.94;85.96;102724.59;5050492;28;19928;-63
2024/01/12 06:41:42;;;;;;;;;;;;;;;3.90;86.16;102728.00;5046671;28;19933;-63
2024/01/12 06:44:10;;;;;;;;;;;;;;;3.75;85.90;102717.41;5050003;28;19929;-63
2024/01/12 06:46:40;;;;;;;;;;;;;;;3.73;85.92;102727.69;5049865;28;19929;-63
2024/01/12 06:49:10;;;;;;;;;;;;;;;3.66;86.71;102724.16;5042968;28;19928;-64
2024/01/12 06:51:37;;;;;;;;;;;;;;;3.57;86.59;102717.31;5047387;28;19936;-64
2024/01/12 06:54:04;;;;;;;;;;;;;;;3.51;87.81;102718.19;5048990;28;19963;-63
2024/01/12 06:56:32;;;;;;;;;;;;;;;3.70;87.32;102716.38;5048252;28;19936;-62
2024/01/12 06:58:59;;;;;;;;;;;;;;;3.60;87.46;102725.03;5048017;28;19932;-56
2024/01/12 07:01:26;;;;;;;;;;;;;;;3.55;87.02;102715.84;5049189;28;19979;-63
2024/01/12 07:03:54;;;;;;;;;;;;;;;3.76;87.06;102719.09;5050848;28;19928;-58
2024/01/12 07:06:21;;;;;;;;;;;;;;;3.86;86.06;102718.59;5051263;28;19929;-56
2024/01/12 07:08:48;;;;;;;;;;;;;;;3.90;85.29;102728.00;5047032;28;20295;-63
2024/01/12 07:11:16;;;;;;;;;;;;;;;3.65;85.72;102730.69;5050976;28;19940;-62
2024/01/12 07:13:43;;;;;;;;;;;;;;;3.56;85.61;102723.00;5044555;28;19928;-63
2024/01/12 07:16:10;;;;;;;;;;;;;;;3.51;85.58;102733.69;5048644;28;19933;-63
2024/01/12 07:18:37;;;;;;;;;;;;;;;3.61;85.11;102725.88;5045341;28;19929;-63
2024/01/12 07:21:04;;;;;;;;;;;;;;;3.61;85.46;102725.88;5051306;28;19928;-63
2024/01/12 07:23:31;;;;;;;;;;;;;;;3.73;84.92;102724.13;5047386;28;19929;-65
2024/01/12 07:25:58;;;;;;;;;;;;;;;3.70;84.68;102730.00;5049695;28;19935;-62
2024/01/12 07:28:26;;;;;;;;;;;;;;;3.74;85.17;102734.81;5039709;28;19929;-63
2024/01/12 07:30:53;;;;;;;;;;;;;;;3.84;85.06;102737.03;5048097;28;19955;-62
2024/01/12 07:33:21;;;;;;;;;;;;;;;3.99;84.43;102741.13;5048229;28;19929;-62
2024/01/12 07:35:48;;;;;;;;;;;;;;;3.93;84.40;102730.28;5045754;28;19940;-62
2024/01/12 07:38:15;;;;;;;;;;;;;;;4.02;84.33;102737.13;5059395;28;19928;-63
2024/01/12 07:40:42;;;;;;;;;;;;;;;3.96;84.05;102729.81;5047945;28;19933;-63
2024/01/12 07:43:09;;;;;;;;;;;;;;;3.66;85.84;102735.06;5047303;28;19940;-63
2024/01/12 07:45:37;;;;;;;;;;;;;;;3.65;86.41;102736.13;5047518;28;19933;-62
2024/01/12 07:48:04;;;;;;;;;;;;;;;3.83;86.31;102744.41;5045878;28;19928;-63
2024/01/12 07:50:31;;;;;;;;;;;;;;;3.56;86.05;102751.06;5045567;28;19928;-62
2024/01/12 07:52:58;;;;;;;;;;;;;;;3.69;86.58;102745.53;5030720;28;19929;-62
2024/01/12 07:55:31;;;;;;;;;;;;;;;3.76;87.08;102740.03;5043970;28;20012;-61
2024/01/12 07:57:59;;;;;;;;;;;;;;;3.74;86.09;102740.25;5048546;28;19962;-63
2024/01/12 08:00:27;;;;;;;;;;;;;;;3.78;86.52;102749.69;5048450;28;20389;-63
2024/01/12 08:02:56;;;;;;;;;;;;;;;4.03;85.99;102742.38;5062053;28;20289;-63
2024/01/12 08:05:23;;;;;;;;;;;;;;;3.49;85.86;102738.53;5054681;28;19935;-64
2024/01/12 08:07:51;;;;;;;;;;;;;;;3.50;87.09;102748.38;5048206;28;20718;-64
2024/01/12 08:10:18;;;;;;;;;;;;;;;3.73;86.55;102737.75;5046691;28;20517;-63
2024/01/12 08:12:45;;;;;;;;;;;;;;;3.56;85.63;102739.34;5042753;28;19983;-64
2024/01/12 08:15:12;;;;;;;;;;;;;;;3.36;86.40;102737.53;5042114;28;19929;-64
2024/01/12 08:17:40;;;;;;;;;;;;;;;3.10;87.72;102734.91;5051941;28;19929;-63
2024/01/12 08:20:07;;;;;;;;;;;;;;;3.21;87.94;102736.97;5045512;28;19936;-63
2024/01/12 08:22:34;;;;;;;;;;;;;;;3.10;87.30;102739.53;5050577;28;20761;-63
2024/01/12 08:25:02;;;;;;;;;;;;;;;3.29;87.18;102734.03;5052221;28;19936;-63
2024/01/12 08:27:29;;;;;;;;;;;;;;;3.23;86.62;102737.59;5036256;28;19944;-63
2024/01/12 08:29:56;;;;;;;;;;;;;;;3.29;86.21;102739.47;5055898;28;19929;-63
2024/01/12 08:32:24;;;;;;;;;;;;;;;3.34;86.76;102736.09;5050588;28;19975;-64
2024/01/12 08:34:51;;;;;;;;;;;;;;;3.35;86.54;102735.88;5059139;28;19929;-63
2024/01/12 08:37:18;;;;;;;;;;;;;;;3.41;86.20;102736.88;5050113;28;20645;-63
2024/01/12 08:39:45;;;;;;;;;;;;;;;3.32;86.02;102730.00;5042733;28;20470;-63
2024/01/12 08:42:12;;;;;;;;;;;;;;;3.38;85.54;102732.69;5047855;28;19929;-63
2024/01/12 08:44:40;;;;;;;;;;;;;;;3.27;85.43;102732.56;5048778;28;19928;-63
2024/01/12 08:47:07;;;;;;;;;;;;;;;3.42;85.91;102738.53;5042602;28;19987;-63
2024/01/12 08:49:34;;;;;;;;;;;;;;;3.72;85.10;102734.19;5044338;28;19929;-63
2024/01/12 08:52:01;;;;;;;;;;;;;;;3.73;85.01;102738.56;5048540;28;19944;-63
2024/01/12 08:54:31;;;;;;;;;;;;;;;3.60;84.51;102740.56;5027759;28;20174;-63
2024/01/12 08:57:02;;;;;;;;;;;;;;;3.39;85.57;102747.16;5040294;28;20623;-63
2024/01/12 08:59:39;;;;;;;;;;;;;;;3.27;86.79;102735.28;5050398;28;19929;-64
2024/01/12 09:02:06;;;;;;;;;;;;;;;3.35;86.66;102733.13;5048848;28;19929;-63
2024/01/12 09:04:36;;;;;;;;;;;;;;;3.32;87.06;102749.91;5048012;28;19929;-64
2024/01/12 09:07:04;;;;;;;;;;;;;;;3.68;86.55;102741.13;5049457;28;19936;-64
2024/01/12 09:09:31;;;;;;;;;;;;;;;3.84;85.11;102756.97;5053861;28;20379;-63
2024/01/12 09:11:59;;;;;;;;;;;;;;;3.58;85.53;102761.72;5046950;28;19936;-63
2024/01/12 09:14:27;;;;;;;;;;;;;;;3.64;84.95;102759.00;5044311;28;20565;-64
2024/01/12 09:16:54;;;;;;;;;;;;;;;3.52;84.46;102762.59;5056038;28;19935;-64
2024/01/12 09:19:21;;;;;;;;;;;;;;;3.67;85.12;102747.66;5027006;28;19929;-63
2024/01/12 09:21:48;;;;;;;;;;;;;;;3.43;85.29;102751.13;5047047;28;19936;-64
2024/01/12 09:24:16;;;;;;;;;;;;;;;3.44;86.20;102758.25;5048555;28;19929;-63
2024/01/12 09:26:43;;;;;;;;;;;;;;;3.37;86.54;102765.59;5048238;28;20770;-64
2024/01/12 09:29:10;;;;;;;;;;;;;;;3.53;86.50;102756.94;5050369;28;19928;-63
2024/01/12 09:32:26;;;;;;;;;;;;;;;3.42;86.56;102761.19;5049559;28;19929;-62
2024/01/12 09:35:22;;;;;;;;;;;;;;;3.50;86.10;102767.44;5047982;28;20208;-64
2024/01/12 09:39:01;;;;;;;;;;;;;;;3.72;85.89;102766.91;5039060;28;19929;-63
2024/01/12 09:41:31;;;;;;;;;;;;;;;3.63;85.59;102775.56;5036444;28;19929;-64
2024/01/12 09:43:59;;;;;;;;;;;;;;;3.38;86.27;102775.47;5027741;28;19929;-63
2024/01/12 09:46:28;;;;;;;;;;;;;;;3.54;86.52;102772.22;5055429;28;19929;-62
2024/01/12 09:48:55;;;;;;;;;;;;;;;3.52;85.67;102779.81;5049359;28;19929;-64
2024/01/12 09:51:22;;;;;;;;;;;;;;;3.67;85.10;102780.34;5028970;28;19940;-62
2024/01/12 09:53:50;;;;;;;;;;;;;;;3.84;85.81;102778.78;5039005;28;20028;-63
2024/01/12 09:56:18;;;;;;;;;;;;;;;3.95;83.81;102782.69;5047136;28;19929;-65
2024/01/12 09:58:49;;;;;;;;;;;;;;;3.47;83.89;102792.41;5056096;28;19936;-65
2024/01/12 10:01:17;;;;;;;;;;;;;;;3.25;85.05;102800.84;5040903;28;19936;-65
2024/01/12 10:03:45;;;;;;;;;;;;;;;3.11;85.72;102798.38;5047039;28;19944;-64
2024/01/12 10:06:12;;;;;;;;;;;;;;;3.31;85.59;102794.53;5046320;28;19940;-63
2024/01/12 10:08:40;;;;;;;;;;;;;;;3.31;84.64;102804.59;5046719;28;19924;-63
2024/01/12 10:11:09;;;;;;;;;;;;;;;3.35;84.61;102803.09;5048707;28;19940;-64
2024/01/12 10:13:36;;;;;;;;;;;;;;;3.69;83.99;102801.91;5044286;28;20318;-63
2024/01/12 10:16:07;;;;;;;;;;;;;;;3.69;82.50;102802.78;5047836;28;20636;-63
2024/01/12 10:18:34;;;;;;;;;;;;;;;3.71;82.08;102799.81;5039076;28;19932;-63
2024/01/12 10:21:03;;;;;;;;;;;;;;;3.78;81.93;102809.66;5052588;28;19928;-64
2024/01/12 10:23:31;;;;;;;;;;;;;;;3.95;81.44;102805.34;5053026;28;19925;-63
2024/01/12 10:25:59;;;;;;;;;;;;;;;3.91;80.74;102819.63;5046520;28;19939;-65
2024/01/12 10:28:27;;;;;;;;;;;;;;;3.82;80.63;102804.59;5052510;28;20447;-65
2024/01/12 10:30:54;;;;;;;;;;;;;;;3.56;81.53;102810.19;5053102;28;19925;-65
2024/01/12 10:33:22;;;;;;;;;;;;;;;3.74;81.32;102802.94;5055470;28;20031;-65
2024/01/12 10:35:51;;;;;;;;;;;;;;;3.51;81.54;102813.53;5054653;28;19925;-65
2024/01/12 10:38:19;;;;;;;;;;;;;;;3.52;82.09;102817.09;5055990;28;19925;-66
2024/01/12 10:40:46;;;;;;;;;;;;;;;3.58;82.19;102808.03;5054506;28;19928;-67
2024/01/12 10:43:14;;;;;;;;;;;;;;;3.71;81.36;102805.28;5052025;28;20452;-65
2024/01/12 10:45:42;;;;;;;;;;;;;;;3.61;81.44;102804.91;5057916;28;19935;-66
2024/01/12 10:48:12;;;;;;;;;;;;;;;3.54;81.65;102802.19;5056943;28;19929;-66
2024/01/12 10:50:41;;;;;;;;;;;;;;;3.68;81.77;102797.53;5061914;28;19925;-67
2024/01/12 10:53:18;;;;;;;;;;;;;;;3.55;81.53;102798.44;5057413;28;19952;-66
2024/01/12 10:55:55;;;;;;;;;;;;;;;3.44;82.17;102793.66;5051319;28;19959;-66
2024/01/12 10:58:22;;;;;;;;;;;;;;;3.41;81.56;102799.53;5061014;28;19928;-66
2024/01/12 11:00:50;;;;;;;;;;;;;;;3.45;81.87;102792.63;5063964;28;20484;-66
2024/01/12 11:03:17;;;;;;;;;;;;;;;3.64;80.58;102788.97;5040289;28;19940;-66
2024/01/12 11:05:44;;;;;;;;;;;;;;;3.43;81.43;102792.81;5054873;28;19933;-64
2024/01/12 11:08:15;;;;;;;;;;;;;;;3.22;81.15;102793.13;5058726;28;19925;-66
2024/01/12 11:10:46;;;;;;;;;;;;;;;3.47;81.21;102787.75;5052624;28;19940;-65
2024/01/12 11:13:16;;;;;;;;;;;;;;;3.38;80.65;102791.81;5045350;28;19932;-63
2024/01/12 11:15:43;;;;;;;;;;;;;;;3.55;80.38;102792.13;5051845;28;19940;-65
2024/01/12 11:18:11;;;;;;;;;;;;;;;3.57;80.20;102790.88;5052475;28;19928;-64
2024/01/12 11:20:38;;;;;;;;;;;;;;;3.21;80.59;102794.16;5050693;28;19924;-66
2024/01/12 11:23:08;;;;;;;;;;;;;;;3.40;80.52;102786.94;5029391;28;19925;-65
2024/01/12 11:25:35;;;;;;;;;;;;;;;3.42;79.93;102791.16;5049175;28;19928;-64
2024/01/12 11:28:02;;;;;;;;;;;;;;;3.36;80.30;102788.44;5060254;28;19933;-63
2024/01/12 11:30:30;;;;;;;;;;;;;;;3.35;79.40;102784.03;5052080;28;19932;-63
2024/01/12 11:33:01;;;;;;;;;;;;;;;3.39;78.79;102772.50;5052342;28;19928;-62
2024/01/12 11:35:29;;;;;;;;;;;;;;;3.11;79.16;102773.88;5053293;28;19936;-66
2024/01/12 11:37:59;;;;;;;;;;;;;;;3.34;78.94;102760.59;5054665;28;20406;-64
2024/01/12 11:40:27;;;;;;;;;;;;;;;3.60;77.63;102760.47;5047360;28;19932;-63
2024/01/12 11:42:54;;;;;;;;;;;;;;;3.66;77.10;102756.03;5064478;28;20419;-65
2024/01/12 11:45:21;;;;;;;;;;;;;;;3.37;77.29;102757.44;5038706;28;20716;-63
2024/01/12 11:47:49;;;;;;;;;;;;;;;3.41;77.72;102748.63;5052936;28;19925;-63
2024/01/12 11:50:17;;;;;;;;;;;;;;;3.29;78.40;102739.47;5053018;28;20315;-64
2024/01/12 11:52:53;;;;;;;;;;;;;;;3.33;78.23;102748.00;5047590;28;19933;-64
2024/01/12 11:55:21;;;;;;;;;;;;;;;3.38;78.27;102737.31;5051879;28;19925;-65
2024/01/12 11:57:48;;;;;;;;;;;;;;;3.03;79.02;102744.97;5054940;28;19939;-64
2024/01/12 12:00:15;;;;;;;;;;;;;;;3.11;79.39;102736.59;5046673;28;20439;-63
2024/01/12 12:02:42;;;;;;;;;;;;;;;3.22;79.00;102744.09;5050127;28;19940;-64
2024/01/12 12:05:16;;;;;;;;;;;;;;;3.51;78.04;102731.78;5051188;28;19939;-62
2024/01/12 12:07:46;;;;;;;;;;;;;;;3.44;77.41;102733.72;5049259;28;19932;-65
2024/01/12 12:10:14;;;;;;;;;;;;;;;3.31;78.21;102728.34;5052393;28;19928;-64
2024/01/12 12:12:41;;;;;;;;;;;;;;;3.35;78.36;102727.69;5052550;28;19925;-65
2024/01/12 12:15:08;;;;;;;;;;;;;;;3.54;77.49;102730.53;5051728;28;19936;-65
2024/01/12 12:17:43;;;;;;;;;;;;;;;3.61;77.36;102731.34;5046842;28;19932;-65
2024/01/12 12:20:11;;;;;;;;;;;;;;;3.54;77.11;102725.91;5052560;28;19925;-64
2024/01/12 12:22:42;;;;;;;;;;;;;;;3.09;78.97;102725.09;5052281;28;19944;-64
2024/01/12 12:25:12;;;;;;;;;;;;;;;3.15;79.53;102724.22;5051894;28;19924;-64
2024/01/12 12:27:40;;;;;;;;;;;;;;;3.26;78.68;102726.25;5051008;28;19925;-65
2024/01/12 12:30:08;;;;;;;;;;;;;;;3.17;79.30;102721.28;5031996;28;19935;-64
2024/01/12 12:32:53;;;;;;;;;;;;;;;3.34;78.68;102733.34;5034206;28;19932;-65
2024/01/12 12:35:34;;;;;;;;;;;;;;;3.47;77.93;102717.78;5056576;28;19932;-65
2024/01/12 12:38:01;;;;;;;;;;;;;;;3.42;77.31;102724.94;5043567;28;20974;-64
2024/01/12 12:40:29;;;;;;;;;;;;;;;3.75;76.93;102717.41;5047117;28;20693;-65
2024/01/12 12:42:57;;;;;;;;;;;;;;;3.60;77.10;102719.59;5052082;28;19928;-63
2024/01/12 12:45:25;;;;;;;;;;;;;;;3.79;76.98;102713.19;5051387;28;20534;-63
2024/01/12 12:47:52;;;;;;;;;;;;;;;3.84;76.69;102717.97;5050065;28;19928;-66
2024/01/12 12:50:23;;;;;;;;;;;;;;;3.30;79.06;102705.72;5049833;28;19925;-64
2024/01/12 12:52:54;;;;;;;;;;;;;;;3.19;79.16;102702.84;5033672;28;19936;-65